SAA362 FACT-FAOR
Flight info
| Callsign | SAA362 |
|---|---|
| Flight time | 1h 47m |
| Altitude | 39000 |
| Route | TETAN1A TETAN UZ2 NIBEX NIBEX1B |
| Aircraft | A320/M-SDE3FGHIRWY/LB1 |
Departure
| Time | 2026-05-04 17:46 |
|---|---|
| Airport | Cape Town International Airport (FACT) |
Arrival
| Time | 2026-05-04 19:33 |
|---|---|
| Airport | O.R. Tambo International Airport (FAOR) |
| Time | Latitude | Longitude | Altitude | Speed | Heading |
|---|---|---|---|---|---|
| 2026-05-04 17:25 | -33.96990 | 18.59833 | 157 ft | 0 kts | 254° |
| 2026-05-04 17:38 | -33.96983 | 18.59857 | 157 ft | 4 kts | 236° |
| 2026-05-04 17:38 | -33.96967 | 18.59883 | 157 ft | 4 kts | 248° |
| 2026-05-04 17:38 | -33.96963 | 18.59911 | 157 ft | 4 kts | 293° |
| 2026-05-04 17:38 | -33.96977 | 18.59925 | 157 ft | 4 kts | 345° |
| 2026-05-04 17:39 | -33.96985 | 18.59927 | 157 ft | 0 kts | 345° |
| 2026-05-04 17:42 | -33.96983 | 18.59927 | 157 ft | 2 kts | 345° |
| 2026-05-04 17:42 | -33.96925 | 18.59908 | 157 ft | 14 kts | 345° |
| 2026-05-04 17:43 | -33.96834 | 18.59878 | 157 ft | 12 kts | 345° |
| 2026-05-04 17:43 | -33.96758 | 18.59853 | 157 ft | 10 kts | 345° |
| 2026-05-04 17:43 | -33.96684 | 18.59830 | 157 ft | 10 kts | 345° |
| 2026-05-04 17:43 | -33.96612 | 18.59809 | 157 ft | 11 kts | 347° |
| 2026-05-04 17:44 | -33.96535 | 18.59785 | 157 ft | 12 kts | 346° |
| 2026-05-04 17:44 | -33.96459 | 18.59769 | 157 ft | 10 kts | 349° |
| 2026-05-04 17:44 | -33.96390 | 18.59755 | 157 ft | 11 kts | 350° |
| 2026-05-04 17:44 | -33.96314 | 18.59738 | 157 ft | 12 kts | 350° |
| 2026-05-04 17:45 | -33.96239 | 18.59727 | 156 ft | 11 kts | 6° |
| 2026-05-04 17:45 | -33.96174 | 18.59792 | 154 ft | 14 kts | 44° |
| 2026-05-04 17:45 | -33.96098 | 18.59884 | 155 ft | 17 kts | 46° |
| 2026-05-04 17:45 | -33.96039 | 18.60005 | 154 ft | 17 kts | 107° |
| 2026-05-04 17:46 | -33.96156 | 18.60061 | 154 ft | 35 kts | 163° |
| 2026-05-04 17:46 | -33.96715 | 18.60237 | 161 ft | 126 kts | 165° |
| 2026-05-04 17:46 | -33.97776 | 18.60579 | 295 ft | 179 kts | 166° |
| 2026-05-04 17:46 | -33.98990 | 18.61001 | 1199 ft | 184 kts | 165° |
| 2026-05-04 17:47 | -34.00236 | 18.61446 | 2170 ft | 193 kts | 166° |
| 2026-05-04 17:47 | -34.01602 | 18.61933 | 2854 ft | 217 kts | 166° |
| 2026-05-04 17:47 | -34.03121 | 18.62490 | 3563 ft | 241 kts | 166° |
| 2026-05-04 17:47 | -34.04745 | 18.63303 | 4201 ft | 267 kts | 146° |
| 2026-05-04 17:48 | -34.05928 | 18.65029 | 4991 ft | 280 kts | 114° |
| 2026-05-04 17:48 | -34.06228 | 18.67342 | 5871 ft | 285 kts | 81° |
| 2026-05-04 17:48 | -34.05502 | 18.69550 | 6768 ft | 286 kts | 55° |
| 2026-05-04 17:48 | -34.04421 | 18.71571 | 7675 ft | 288 kts | 54° |
| 2026-05-04 17:49 | -34.03311 | 18.73606 | 8538 ft | 294 kts | 53° |
| 2026-05-04 17:49 | -34.02180 | 18.75675 | 8888 ft | 296 kts | 53° |
| 2026-05-04 17:49 | -34.01047 | 18.77758 | 9277 ft | 298 kts | 54° |
| 2026-05-04 17:49 | -33.99912 | 18.79860 | 10191 ft | 302 kts | 53° |
| 2026-05-04 17:50 | -33.98716 | 18.82064 | 10486 ft | 326 kts | 53° |
| 2026-05-04 17:50 | -33.97443 | 18.84404 | 10981 ft | 339 kts | 53° |
| 2026-05-04 17:50 | -33.96142 | 18.86803 | 11693 ft | 345 kts | 53° |
| 2026-05-04 17:50 | -33.94824 | 18.89242 | 12448 ft | 350 kts | 53° |
| 2026-05-04 17:51 | -33.93489 | 18.91714 | 13199 ft | 354 kts | 53° |
| 2026-05-04 17:51 | -33.92140 | 18.94216 | 13932 ft | 359 kts | 53° |
| 2026-05-04 17:51 | -33.90773 | 18.96748 | 14594 ft | 362 kts | 52° |
| 2026-05-04 17:51 | -33.89389 | 18.99303 | 15268 ft | 366 kts | 52° |
| 2026-05-04 17:52 | -33.87993 | 19.01875 | 15929 ft | 369 kts | 51° |
| 2026-05-04 17:52 | -33.86585 | 19.04467 | 16602 ft | 372 kts | 50° |
| 2026-05-04 17:52 | -33.85164 | 19.07079 | 17254 ft | 375 kts | 50° |
| 2026-05-04 17:52 | -33.83729 | 19.09715 | 17928 ft | 378 kts | 49° |
| 2026-05-04 17:53 | -33.82285 | 19.12371 | 18556 ft | 381 kts | 49° |
| 2026-05-04 17:53 | -33.80851 | 19.15009 | 19073 ft | 382 kts | 48° |
| 2026-05-04 17:53 | -33.79387 | 19.17699 | 19625 ft | 386 kts | 47° |
| 2026-05-04 17:53 | -33.77913 | 19.20407 | 20187 ft | 388 kts | 47° |
| 2026-05-04 17:54 | -33.76428 | 19.23131 | 20723 ft | 391 kts | 47° |
| 2026-05-04 17:54 | -33.74933 | 19.25869 | 21312 ft | 393 kts | 46° |
| 2026-05-04 17:54 | -33.73425 | 19.28622 | 21894 ft | 396 kts | 45° |
| 2026-05-04 17:54 | -33.71907 | 19.31392 | 22435 ft | 398 kts | 45° |
| 2026-05-04 17:55 | -33.70379 | 19.34180 | 22986 ft | 401 kts | 45° |
| 2026-05-04 17:55 | -33.68840 | 19.36990 | 23516 ft | 404 kts | 45° |
| 2026-05-04 17:55 | -33.67295 | 19.39812 | 23979 ft | 406 kts | 45° |
| 2026-05-04 17:55 | -33.65718 | 19.42628 | 24410 ft | 406 kts | 43° |
| 2026-05-04 17:56 | -33.64050 | 19.45357 | 24837 ft | 405 kts | 40° |
| 2026-05-04 17:56 | -33.62311 | 19.48018 | 25265 ft | 406 kts | 39° |
| 2026-05-04 17:56 | -33.60536 | 19.50651 | 25684 ft | 407 kts | 38° |
| 2026-05-04 17:56 | -33.58740 | 19.53294 | 26099 ft | 410 kts | 39° |
| 2026-05-04 17:57 | -33.56944 | 19.55954 | 26516 ft | 412 kts | 39° |
| 2026-05-04 17:57 | -33.55147 | 19.58645 | 26939 ft | 415 kts | 39° |
| 2026-05-04 17:57 | -33.53346 | 19.61373 | 27415 ft | 419 kts | 39° |
| 2026-05-04 17:57 | -33.51565 | 19.64095 | 27856 ft | 422 kts | 40° |
| 2026-05-04 17:58 | -33.49727 | 19.66913 | 28310 ft | 425 kts | 40° |
| 2026-05-04 17:58 | -33.47928 | 19.69668 | 28752 ft | 427 kts | 39° |
| 2026-05-04 17:58 | -33.46087 | 19.72480 | 29179 ft | 429 kts | 39° |
| 2026-05-04 17:58 | -33.44234 | 19.75295 | 29599 ft | 432 kts | 39° |
| 2026-05-04 17:59 | -33.42366 | 19.78123 | 30046 ft | 434 kts | 39° |
| 2026-05-04 17:59 | -33.40486 | 19.80966 | 30413 ft | 437 kts | 39° |
| 2026-05-04 17:59 | -33.36696 | 19.86700 | 31047 ft | 442 kts | 39° |
| 2026-05-04 18:00 | -33.34779 | 19.89597 | 31394 ft | 445 kts | 39° |
| 2026-05-04 18:00 | -33.32858 | 19.92503 | 31795 ft | 446 kts | 39° |
| 2026-05-04 18:00 | -33.30941 | 19.95410 | 32232 ft | 445 kts | 39° |
| 2026-05-04 18:00 | -33.29015 | 19.98299 | 32676 ft | 443 kts | 38° |
| 2026-05-04 18:01 | -33.27037 | 20.01098 | 33194 ft | 435 kts | 36° |
| 2026-05-04 18:01 | -33.25093 | 20.03729 | 34447 ft | 412 kts | 35° |
| 2026-05-04 18:01 | -33.23196 | 20.06234 | 35076 ft | 404 kts | 34° |
| 2026-05-04 18:02 | -33.19388 | 20.11149 | 35665 ft | 404 kts | 34° |
| 2026-05-04 18:02 | -33.17510 | 20.13584 | 35920 ft | 405 kts | 35° |
| 2026-05-04 18:02 | -33.15608 | 20.16070 | 36201 ft | 406 kts | 35° |
| 2026-05-04 18:02 | -33.13708 | 20.18571 | 36459 ft | 407 kts | 36° |
| 2026-05-04 18:03 | -33.11812 | 20.21084 | 36716 ft | 408 kts | 36° |
| 2026-05-04 18:03 | -33.09913 | 20.23612 | 36964 ft | 409 kts | 36° |
| 2026-05-04 18:03 | -33.08010 | 20.26146 | 37206 ft | 411 kts | 36° |
| 2026-05-04 18:03 | -33.06102 | 20.28683 | 37430 ft | 412 kts | 36° |
| 2026-05-04 18:04 | -33.04188 | 20.31220 | 37656 ft | 412 kts | 36° |
| 2026-05-04 18:04 | -33.02262 | 20.33766 | 37905 ft | 413 kts | 36° |
| 2026-05-04 18:04 | -32.98398 | 20.38848 | 38326 ft | 415 kts | 37° |
| 2026-05-04 18:05 | -32.97111 | 20.40537 | 38412 ft | 417 kts | 37° |
| 2026-05-04 18:05 | -32.94491 | 20.43972 | 38581 ft | 420 kts | 37° |
| 2026-05-04 18:05 | -32.92527 | 20.46553 | 38705 ft | 422 kts | 37° |
| 2026-05-04 18:05 | -32.90550 | 20.49150 | 38810 ft | 424 kts | 37° |
| 2026-05-04 18:06 | -32.86600 | 20.54345 | 39010 ft | 429 kts | 37° |
| 2026-05-04 18:06 | -32.82537 | 20.59668 | 39025 ft | 440 kts | 37° |
| 2026-05-04 18:07 | -32.78371 | 20.65119 | 39025 ft | 449 kts | 37° |
| 2026-05-04 18:07 | -32.74167 | 20.70631 | 39024 ft | 450 kts | 37° |
| 2026-05-04 18:08 | -32.69961 | 20.76143 | 39025 ft | 450 kts | 37° |
| 2026-05-04 18:08 | -32.65758 | 20.81628 | 39023 ft | 448 kts | 37° |
| 2026-05-04 18:09 | -32.57366 | 20.92530 | 39016 ft | 446 kts | 36° |
| 2026-05-04 18:10 | -32.53180 | 20.97958 | 39013 ft | 446 kts | 36° |
| 2026-05-04 18:10 | -32.49004 | 21.03375 | 39010 ft | 445 kts | 36° |
| 2026-05-04 18:11 | -32.44836 | 21.08783 | 39014 ft | 444 kts | 36° |
| 2026-05-04 18:11 | -32.40691 | 21.14134 | 39003 ft | 443 kts | 36° |
| 2026-05-04 18:12 | -32.36519 | 21.19499 | 39003 ft | 443 kts | 36° |
| 2026-05-04 18:12 | -32.32355 | 21.24871 | 39004 ft | 443 kts | 35° |
| 2026-05-04 18:13 | -32.28196 | 21.30228 | 39000 ft | 442 kts | 35° |
| 2026-05-04 18:14 | -32.21945 | 21.38249 | 39004 ft | 442 kts | 34° |
| 2026-05-04 18:14 | -32.17779 | 21.43576 | 39003 ft | 441 kts | 34° |
| 2026-05-04 18:15 | -32.09448 | 21.54234 | 39002 ft | 442 kts | 34° |
| 2026-05-04 18:16 | -32.05270 | 21.59563 | 39003 ft | 442 kts | 34° |
| 2026-05-04 18:16 | -32.01089 | 21.64889 | 39004 ft | 443 kts | 33° |
| 2026-05-04 18:17 | -31.94801 | 21.72897 | 39011 ft | 444 kts | 33° |
| 2026-05-04 18:18 | -31.88494 | 21.80908 | 39010 ft | 445 kts | 33° |
| 2026-05-04 18:18 | -31.84275 | 21.86253 | 39007 ft | 446 kts | 33° |
| 2026-05-04 18:19 | -31.77930 | 21.94274 | 39005 ft | 447 kts | 33° |
| 2026-05-04 18:19 | -31.73687 | 21.99631 | 39002 ft | 448 kts | 33° |
| 2026-05-04 18:20 | -31.70158 | 22.04086 | 39003 ft | 448 kts | 32° |
| 2026-05-04 18:20 | -31.65907 | 22.09449 | 39002 ft | 449 kts | 32° |
| 2026-05-04 18:21 | -31.61646 | 22.14800 | 39003 ft | 449 kts | 32° |
| 2026-05-04 18:21 | -31.56653 | 22.21059 | 38999 ft | 449 kts | 32° |
| 2026-05-04 18:22 | -31.53105 | 22.25508 | 39000 ft | 449 kts | 32° |
| 2026-05-04 18:22 | -31.48836 | 22.30858 | 38998 ft | 449 kts | 32° |
| 2026-05-04 18:23 | -31.43875 | 22.37053 | 38998 ft | 449 kts | 32° |
| 2026-05-04 18:23 | -31.40299 | 22.41523 | 38994 ft | 449 kts | 32° |
| 2026-05-04 18:24 | -31.36027 | 22.46847 | 38990 ft | 448 kts | 32° |
| 2026-05-04 18:24 | -31.31792 | 22.52120 | 38992 ft | 447 kts | 32° |
| 2026-05-04 18:25 | -31.27532 | 22.57415 | 38984 ft | 447 kts | 32° |
| 2026-05-04 18:25 | -31.23268 | 22.62703 | 38991 ft | 447 kts | 32° |
| 2026-05-04 18:26 | -31.19008 | 22.67980 | 38982 ft | 446 kts | 32° |
| 2026-05-04 18:26 | -31.14756 | 22.73256 | 38976 ft | 445 kts | 32° |
| 2026-05-04 18:27 | -31.10511 | 22.78514 | 38975 ft | 445 kts | 32° |
| 2026-05-04 18:27 | -31.06259 | 22.83748 | 38974 ft | 444 kts | 32° |
| 2026-05-04 18:28 | -31.02011 | 22.88968 | 38974 ft | 443 kts | 32° |
| 2026-05-04 18:28 | -30.97761 | 22.94182 | 38964 ft | 443 kts | 31° |
| 2026-05-04 18:29 | -30.93517 | 22.99378 | 38971 ft | 442 kts | 31° |
| 2026-05-04 18:29 | -30.89273 | 23.04570 | 38972 ft | 443 kts | 31° |
| 2026-05-04 18:30 | -30.82902 | 23.12359 | 38972 ft | 443 kts | 31° |
| 2026-05-04 18:31 | -30.78652 | 23.17547 | 38971 ft | 443 kts | 31° |
| 2026-05-04 18:31 | -30.74417 | 23.22691 | 38967 ft | 443 kts | 31° |
| 2026-05-04 18:32 | -30.70156 | 23.27859 | 38974 ft | 443 kts | 31° |
| 2026-05-04 18:32 | -30.65896 | 23.33036 | 38973 ft | 443 kts | 31° |
| 2026-05-04 18:33 | -30.61628 | 23.38203 | 38977 ft | 444 kts | 31° |
| 2026-05-04 18:33 | -30.57356 | 23.43378 | 38974 ft | 444 kts | 31° |
| 2026-05-04 18:34 | -30.53084 | 23.48556 | 38978 ft | 444 kts | 31° |
| 2026-05-04 18:34 | -30.48808 | 23.53731 | 38982 ft | 444 kts | 31° |
| 2026-05-04 18:35 | -30.44522 | 23.58895 | 38988 ft | 445 kts | 31° |
| 2026-05-04 18:35 | -30.40230 | 23.64058 | 38986 ft | 445 kts | 31° |
| 2026-05-04 18:36 | -30.35932 | 23.69214 | 38990 ft | 445 kts | 31° |
| 2026-05-04 18:36 | -30.31634 | 23.74370 | 38990 ft | 445 kts | 31° |
| 2026-05-04 18:37 | -30.27341 | 23.79536 | 38998 ft | 445 kts | 31° |
| 2026-05-04 18:37 | -30.23068 | 23.84657 | 38998 ft | 445 kts | 31° |
| 2026-05-04 18:38 | -30.18764 | 23.89801 | 39002 ft | 445 kts | 31° |
| 2026-05-04 18:38 | -30.14453 | 23.94955 | 39012 ft | 446 kts | 31° |
| 2026-05-04 18:39 | -30.10143 | 24.00095 | 39011 ft | 446 kts | 31° |
| 2026-05-04 18:39 | -30.05824 | 24.05239 | 39008 ft | 446 kts | 31° |
| 2026-05-04 18:40 | -30.01499 | 24.10375 | 39013 ft | 446 kts | 30° |
| 2026-05-04 18:40 | -29.97166 | 24.15500 | 39013 ft | 446 kts | 30° |
| 2026-05-04 18:41 | -29.92827 | 24.20632 | 39017 ft | 447 kts | 31° |
| 2026-05-04 18:41 | -29.88493 | 24.25769 | 39015 ft | 447 kts | 31° |
| 2026-05-04 18:42 | -29.84156 | 24.30918 | 39015 ft | 448 kts | 31° |
| 2026-05-04 18:42 | -29.79839 | 24.36019 | 39013 ft | 447 kts | 31° |
| 2026-05-04 18:43 | -29.75491 | 24.41145 | 39014 ft | 448 kts | 31° |
| 2026-05-04 18:43 | -29.71141 | 24.46272 | 39017 ft | 448 kts | 31° |
| 2026-05-04 18:44 | -29.66791 | 24.51399 | 39015 ft | 448 kts | 31° |
| 2026-05-04 18:44 | -29.62435 | 24.56523 | 39020 ft | 448 kts | 31° |
| 2026-05-04 18:45 | -29.58071 | 24.61635 | 39021 ft | 448 kts | 31° |
| 2026-05-04 18:45 | -29.53707 | 24.66748 | 39022 ft | 448 kts | 31° |
| 2026-05-04 18:46 | -29.49345 | 24.71861 | 39027 ft | 448 kts | 31° |
| 2026-05-04 18:46 | -29.44974 | 24.76970 | 39026 ft | 448 kts | 31° |
| 2026-05-04 18:47 | -29.40601 | 24.82076 | 39031 ft | 449 kts | 31° |
| 2026-05-04 18:47 | -29.36225 | 24.87189 | 39032 ft | 449 kts | 31° |
| 2026-05-04 18:48 | -29.31845 | 24.92302 | 39038 ft | 449 kts | 31° |
| 2026-05-04 18:48 | -29.27451 | 24.97408 | 39037 ft | 449 kts | 31° |
| 2026-05-04 18:49 | -29.23054 | 25.02500 | 39036 ft | 450 kts | 31° |
| 2026-05-04 18:49 | -29.18659 | 25.07595 | 39041 ft | 450 kts | 31° |
| 2026-05-04 18:50 | -29.14293 | 25.12663 | 39043 ft | 450 kts | 31° |
| 2026-05-04 18:50 | -29.09911 | 25.17750 | 39039 ft | 444 kts | 32° |
| 2026-05-04 18:50 | -29.07782 | 25.20240 | 39045 ft | 432 kts | 31° |
| 2026-05-04 18:51 | -29.05702 | 25.22672 | 39045 ft | 423 kts | 31° |
| 2026-05-04 18:51 | -29.01609 | 25.27392 | 39050 ft | 416 kts | 30° |
| 2026-05-04 18:52 | -28.97524 | 25.32056 | 39053 ft | 415 kts | 31° |
| 2026-05-04 18:52 | -28.93446 | 25.36730 | 39054 ft | 415 kts | 31° |
| 2026-05-04 18:53 | -28.89377 | 25.41412 | 39056 ft | 415 kts | 31° |
| 2026-05-04 18:53 | -28.85312 | 25.46088 | 39059 ft | 415 kts | 31° |
| 2026-05-04 18:54 | -28.81247 | 25.50756 | 39059 ft | 415 kts | 31° |
| 2026-05-04 18:54 | -28.77182 | 25.55415 | 39061 ft | 414 kts | 31° |
| 2026-05-04 18:55 | -28.73112 | 25.60067 | 39060 ft | 414 kts | 31° |
| 2026-05-04 18:55 | -28.67017 | 25.67047 | 39068 ft | 414 kts | 31° |
| 2026-05-04 18:56 | -28.62982 | 25.71663 | 39070 ft | 414 kts | 31° |
| 2026-05-04 18:56 | -28.58908 | 25.76309 | 39074 ft | 414 kts | 31° |
| 2026-05-04 18:57 | -28.54831 | 25.80944 | 39080 ft | 415 kts | 31° |
| 2026-05-04 18:57 | -28.50749 | 25.85585 | 39083 ft | 415 kts | 31° |
| 2026-05-04 18:58 | -28.46663 | 25.90231 | 39077 ft | 416 kts | 31° |
| 2026-05-04 18:58 | -28.42570 | 25.94877 | 39091 ft | 416 kts | 32° |
| 2026-05-04 18:59 | -28.38471 | 25.99523 | 39096 ft | 417 kts | 32° |
| 2026-05-04 18:59 | -28.34369 | 26.04170 | 39095 ft | 417 kts | 32° |
| 2026-05-04 19:00 | -28.30256 | 26.08815 | 39098 ft | 417 kts | 31° |
| 2026-05-04 19:00 | -28.26135 | 26.13457 | 39105 ft | 418 kts | 32° |
| 2026-05-04 19:01 | -28.22013 | 26.18109 | 39111 ft | 418 kts | 32° |
| 2026-05-04 19:01 | -28.17887 | 26.22767 | 39109 ft | 419 kts | 32° |
| 2026-05-04 19:02 | -28.13749 | 26.27430 | 39115 ft | 419 kts | 32° |
| 2026-05-04 19:02 | -28.09607 | 26.32080 | 39118 ft | 420 kts | 32° |
| 2026-05-04 19:03 | -28.05459 | 26.36734 | 39123 ft | 420 kts | 32° |
| 2026-05-04 19:03 | -28.01331 | 26.41363 | 39123 ft | 421 kts | 32° |
| 2026-05-04 19:04 | -27.97174 | 26.46021 | 39126 ft | 421 kts | 32° |
| 2026-05-04 19:04 | -27.93011 | 26.50688 | 39124 ft | 422 kts | 32° |
| 2026-05-04 19:05 | -27.88841 | 26.55350 | 39130 ft | 422 kts | 32° |
| 2026-05-04 19:05 | -27.84667 | 26.60015 | 39133 ft | 422 kts | 32° |
| 2026-05-04 19:06 | -27.80483 | 26.64679 | 39134 ft | 423 kts | 32° |
| 2026-05-04 19:06 | -27.76293 | 26.69338 | 39136 ft | 423 kts | 32° |
| 2026-05-04 19:07 | -27.72096 | 26.73999 | 39140 ft | 423 kts | 32° |
| 2026-05-04 19:07 | -27.67897 | 26.78672 | 39142 ft | 424 kts | 32° |
| 2026-05-04 19:08 | -27.63697 | 26.83348 | 39149 ft | 425 kts | 32° |
| 2026-05-04 19:08 | -27.61594 | 26.85684 | 38975 ft | 424 kts | 32° |
| 2026-05-04 19:08 | -27.59489 | 26.88019 | 38546 ft | 424 kts | 32° |
| 2026-05-04 19:09 | -27.57390 | 26.90346 | 38231 ft | 425 kts | 32° |
| 2026-05-04 19:09 | -27.55277 | 26.92685 | 37905 ft | 426 kts | 33° |
| 2026-05-04 19:09 | -27.53157 | 26.95028 | 37628 ft | 427 kts | 33° |
| 2026-05-04 19:09 | -27.51062 | 26.97342 | 37364 ft | 428 kts | 33° |
| 2026-05-04 19:10 | -27.48929 | 26.99699 | 37115 ft | 429 kts | 33° |
| 2026-05-04 19:10 | -27.46797 | 27.02054 | 36866 ft | 430 kts | 33° |
| 2026-05-04 19:10 | -27.44655 | 27.04416 | 36610 ft | 431 kts | 33° |
| 2026-05-04 19:10 | -27.42515 | 27.06776 | 36356 ft | 431 kts | 34° |
| 2026-05-04 19:11 | -27.40358 | 27.09151 | 35556 ft | 440 kts | 34° |
| 2026-05-04 19:11 | -27.38165 | 27.11561 | 35179 ft | 437 kts | 34° |
| 2026-05-04 19:11 | -27.36023 | 27.13938 | 35044 ft | 427 kts | 34° |
| 2026-05-04 19:11 | -27.33925 | 27.16272 | 34796 ft | 421 kts | 34° |
| 2026-05-04 19:12 | -27.31847 | 27.18574 | 34487 ft | 418 kts | 34° |
| 2026-05-04 19:12 | -27.27727 | 27.23109 | 33794 ft | 412 kts | 34° |
| 2026-05-04 19:12 | -27.25683 | 27.25348 | 33465 ft | 408 kts | 34° |
| 2026-05-04 19:13 | -27.23656 | 27.27565 | 33121 ft | 405 kts | 34° |
| 2026-05-04 19:13 | -27.21647 | 27.29763 | 32807 ft | 401 kts | 35° |
| 2026-05-04 19:13 | -27.19641 | 27.31915 | 32488 ft | 396 kts | 33° |
| 2026-05-04 19:13 | -27.17590 | 27.33957 | 32193 ft | 391 kts | 31° |
| 2026-05-04 19:14 | -27.15524 | 27.35909 | 31895 ft | 386 kts | 31° |
| 2026-05-04 19:14 | -27.13458 | 27.37815 | 31584 ft | 383 kts | 30° |
| 2026-05-04 19:14 | -27.11406 | 27.39697 | 31273 ft | 379 kts | 31° |
| 2026-05-04 19:14 | -27.09372 | 27.41577 | 30961 ft | 377 kts | 31° |
| 2026-05-04 19:15 | -27.07390 | 27.43428 | 30661 ft | 374 kts | 31° |
| 2026-05-04 19:15 | -27.05403 | 27.45296 | 30351 ft | 371 kts | 32° |
| 2026-05-04 19:15 | -27.03437 | 27.47156 | 29997 ft | 369 kts | 32° |
| 2026-05-04 19:15 | -27.01485 | 27.49009 | 29616 ft | 366 kts | 32° |
| 2026-05-04 19:16 | -26.99542 | 27.50849 | 29239 ft | 364 kts | 32° |
| 2026-05-04 19:16 | -26.98239 | 27.52082 | 28986 ft | 363 kts | 32° |
| 2026-05-04 19:16 | -26.96314 | 27.53900 | 28602 ft | 360 kts | 32° |
| 2026-05-04 19:16 | -26.94428 | 27.55680 | 28224 ft | 358 kts | 32° |
| 2026-05-04 19:17 | -26.92502 | 27.57498 | 27845 ft | 356 kts | 32° |
| 2026-05-04 19:17 | -26.90612 | 27.59280 | 27487 ft | 354 kts | 32° |
| 2026-05-04 19:17 | -26.88734 | 27.61047 | 27131 ft | 352 kts | 32° |
| 2026-05-04 19:17 | -26.86888 | 27.62782 | 26782 ft | 350 kts | 31° |
| 2026-05-04 19:18 | -26.85005 | 27.64552 | 26429 ft | 348 kts | 32° |
| 2026-05-04 19:18 | -26.83181 | 27.66266 | 26090 ft | 345 kts | 31° |
| 2026-05-04 19:18 | -26.81347 | 27.67960 | 25543 ft | 340 kts | 30° |
| 2026-05-04 19:18 | -26.79491 | 27.69575 | 24964 ft | 336 kts | 29° |
| 2026-05-04 19:19 | -26.77637 | 27.71135 | 24411 ft | 332 kts | 28° |
| 2026-05-04 19:19 | -26.75792 | 27.72666 | 23876 ft | 328 kts | 28° |
| 2026-05-04 19:19 | -26.73971 | 27.74179 | 23258 ft | 325 kts | 28° |
| 2026-05-04 19:19 | -26.72165 | 27.75685 | 22643 ft | 322 kts | 28° |
| 2026-05-04 19:20 | -26.70382 | 27.77180 | 22043 ft | 319 kts | 29° |
| 2026-05-04 19:20 | -26.68616 | 27.78667 | 21468 ft | 316 kts | 29° |
| 2026-05-04 19:20 | -26.66865 | 27.80144 | 20905 ft | 314 kts | 29° |
| 2026-05-04 19:20 | -26.65131 | 27.81607 | 20358 ft | 311 kts | 29° |
| 2026-05-04 19:21 | -26.63419 | 27.83056 | 19975 ft | 303 kts | 29° |
| 2026-05-04 19:21 | -26.61789 | 27.84444 | 19817 ft | 288 kts | 29° |
| 2026-05-04 19:21 | -26.60213 | 27.85780 | 19457 ft | 282 kts | 28° |
| 2026-05-04 19:21 | -26.58648 | 27.87095 | 18918 ft | 284 kts | 28° |
| 2026-05-04 19:22 | -26.57041 | 27.88432 | 18191 ft | 292 kts | 28° |
| 2026-05-04 19:22 | -26.55408 | 27.89829 | 17457 ft | 300 kts | 36° |
| 2026-05-04 19:22 | -26.54200 | 27.91730 | 17191 ft | 304 kts | 62° |
| 2026-05-04 19:22 | -26.53793 | 27.94072 | 16791 ft | 319 kts | 89° |
| 2026-05-04 19:23 | -26.54192 | 27.96515 | 16305 ft | 326 kts | 100° |
| 2026-05-04 19:23 | -26.54716 | 27.98963 | 15836 ft | 322 kts | 101° |
| 2026-05-04 19:23 | -26.55242 | 28.01372 | 15500 ft | 313 kts | 101° |
| 2026-05-04 19:23 | -26.55734 | 28.03695 | 15250 ft | 302 kts | 96° |
| 2026-05-04 19:24 | -26.55766 | 28.05975 | 14861 ft | 289 kts | 75° |
| 2026-05-04 19:24 | -26.55150 | 28.08049 | 14457 ft | 277 kts | 54° |
| 2026-05-04 19:24 | -26.54023 | 28.09727 | 14037 ft | 265 kts | 36° |
| 2026-05-04 19:24 | -26.52674 | 28.11111 | 13615 ft | 261 kts | 36° |
| 2026-05-04 19:25 | -26.51381 | 28.12453 | 13471 ft | 247 kts | 36° |
| 2026-05-04 19:25 | -26.50142 | 28.13736 | 13165 ft | 240 kts | 33° |
| 2026-05-04 19:25 | -26.48774 | 28.14712 | 12814 ft | 228 kts | 15° |
| 2026-05-04 19:25 | -26.47324 | 28.15236 | 12611 ft | 215 kts | 8° |
| 2026-05-04 19:26 | -26.45905 | 28.15677 | 12452 ft | 209 kts | 8° |
| 2026-05-04 19:26 | -26.44532 | 28.16107 | 12353 ft | 200 kts | 8° |
| 2026-05-04 19:26 | -26.43210 | 28.16522 | 12102 ft | 196 kts | 7° |
| 2026-05-04 19:26 | -26.41923 | 28.16924 | 11958 ft | 186 kts | 7° |
| 2026-05-04 19:27 | -26.40720 | 28.17304 | 11777 ft | 176 kts | 7° |
| 2026-05-04 19:27 | -26.39568 | 28.17662 | 11504 ft | 173 kts | 7° |
| 2026-05-04 19:27 | -26.38411 | 28.18019 | 11203 ft | 172 kts | 7° |
| 2026-05-04 19:27 | -26.37264 | 28.18373 | 10777 ft | 168 kts | 7° |
| 2026-05-04 19:28 | -26.36151 | 28.18719 | 10328 ft | 164 kts | 7° |
| 2026-05-04 19:28 | -26.35068 | 28.19050 | 9867 ft | 160 kts | 7° |
| 2026-05-04 19:28 | -26.34000 | 28.19378 | 9395 ft | 158 kts | 8° |
| 2026-05-04 19:28 | -26.32955 | 28.19702 | 8981 ft | 154 kts | 8° |
| 2026-05-04 19:29 | -26.31948 | 28.20015 | 8670 ft | 146 kts | 8° |
| 2026-05-04 19:29 | -26.30975 | 28.20316 | 8446 ft | 144 kts | 8° |
| 2026-05-04 19:29 | -26.30010 | 28.20615 | 8243 ft | 144 kts | 8° |
| 2026-05-04 19:29 | -26.29044 | 28.20914 | 8054 ft | 144 kts | 8° |
| 2026-05-04 19:30 | -26.28084 | 28.21212 | 7866 ft | 143 kts | 9° |
| 2026-05-04 19:30 | -26.27129 | 28.21509 | 7694 ft | 143 kts | 9° |
| 2026-05-04 19:30 | -26.26171 | 28.21806 | 7501 ft | 143 kts | 9° |
| 2026-05-04 19:30 | -26.25215 | 28.22102 | 7327 ft | 142 kts | 9° |
| 2026-05-04 19:31 | -26.24269 | 28.22396 | 7148 ft | 141 kts | 9° |
| 2026-05-04 19:31 | -26.23327 | 28.22688 | 6978 ft | 140 kts | 10° |
| 2026-05-04 19:31 | -26.22392 | 28.22978 | 6807 ft | 139 kts | 10° |
| 2026-05-04 19:31 | -26.21458 | 28.23267 | 6636 ft | 139 kts | 10° |
| 2026-05-04 19:32 | -26.20529 | 28.23555 | 6441 ft | 139 kts | 11° |
| 2026-05-04 19:32 | -26.19590 | 28.23846 | 6243 ft | 140 kts | 12° |
| 2026-05-04 19:32 | -26.18658 | 28.24135 | 6033 ft | 141 kts | 13° |
| 2026-05-04 19:32 | -26.17706 | 28.24430 | 5836 ft | 142 kts | 14° |
| 2026-05-04 19:33 | -26.16753 | 28.24726 | 5628 ft | 142 kts | 14° |
| 2026-05-04 19:33 | -26.15835 | 28.25014 | 5518 ft | 126 kts | 14° |
| 2026-05-04 19:33 | -26.15164 | 28.25219 | 5511 ft | 70 kts | 15° |
| 2026-05-04 19:33 | -26.14810 | 28.25322 | 5506 ft | 34 kts | 8° |
| 2026-05-04 19:34 | -26.14628 | 28.25310 | 5505 ft | 17 kts | 347° |
| 2026-05-04 19:34 | -26.14537 | 28.25281 | 5509 ft | 11 kts | 332° |
| 2026-05-04 19:34 | -26.14476 | 28.25213 | 5512 ft | 14 kts | 317° |
| 2026-05-04 19:34 | -26.14394 | 28.25125 | 5519 ft | 19 kts | 318° |
| 2026-05-04 19:35 | -26.14298 | 28.25020 | 5531 ft | 21 kts | 315° |
| 2026-05-04 19:35 | -26.14190 | 28.24904 | 5531 ft | 22 kts | 316° |
| 2026-05-04 19:35 | -26.14076 | 28.24780 | 5531 ft | 24 kts | 315° |
| 2026-05-04 19:35 | -26.13956 | 28.24649 | 5532 ft | 25 kts | 316° |
| 2026-05-04 19:36 | -26.13830 | 28.24513 | 5534 ft | 25 kts | 315° |
| 2026-05-04 19:36 | -26.13711 | 28.24384 | 5542 ft | 24 kts | 316° |
| 2026-05-04 19:36 | -26.13589 | 28.24251 | 5542 ft | 25 kts | 315° |
| 2026-05-04 19:36 | -26.13465 | 28.24116 | 5545 ft | 25 kts | 315° |
| 2026-05-04 19:37 | -26.13347 | 28.23989 | 5547 ft | 23 kts | 316° |
| 2026-05-04 19:37 | -26.13224 | 28.23856 | 5543 ft | 26 kts | 316° |
| 2026-05-04 19:37 | -26.13141 | 28.23752 | 5543 ft | 13 kts | 281° |
| 2026-05-04 19:37 | -26.13132 | 28.23648 | 5549 ft | 14 kts | 277° |
| 2026-05-04 19:38 | -26.13120 | 28.23525 | 5550 ft | 17 kts | 277° |
| 2026-05-04 19:38 | -26.13146 | 28.23412 | 5547 ft | 16 kts | 201° |
| 2026-05-04 19:38 | -26.13260 | 28.23399 | 5547 ft | 13 kts | 185° |
| 2026-05-04 19:38 | -26.13297 | 28.23373 | 5548 ft | 5 kts | 283° |
| 2026-05-04 19:39 | -26.13291 | 28.23329 | 5548 ft | 6 kts | 277° |
| 2026-05-04 19:39 | -26.13289 | 28.23311 | 5547 ft | 2 kts | 276° |
| 2026-05-04 19:39 | -26.13288 | 28.23301 | 5547 ft | 0 kts | 276° |